sensor_id;sensor_type;location;lat;lon;timestamp;temperature;humidity
11246;DHT22;59870;50.106;8.580;2023-07-16T00:01:12;24.80;96.10
11246;DHT22;59870;50.106;8.580;2023-07-16T00:03:39;24.90;96.30
11246;DHT22;59870;50.106;8.580;2023-07-16T00:06:06;24.60;96.20
11246;DHT22;59870;50.106;8.580;2023-07-16T00:08:34;24.60;96.20
11246;DHT22;59870;50.106;8.580;2023-07-16T00:11:03;24.70;96.00
11246;DHT22;59870;50.106;8.580;2023-07-16T00:13:31;24.50;96.00
11246;DHT22;59870;50.106;8.580;2023-07-16T00:15:58;24.40;96.10
11246;DHT22;59870;50.106;8.580;2023-07-16T00:18:25;24.40;96.40
11246;DHT22;59870;50.106;8.580;2023-07-16T00:20:53;24.70;96.60
11246;DHT22;59870;50.106;8.580;2023-07-16T00:23:20;24.60;96.60
11246;DHT22;59870;50.106;8.580;2023-07-16T00:25:48;24.30;96.40
11246;DHT22;59870;50.106;8.580;2023-07-16T00:28:15;24.30;96.00
11246;DHT22;59870;50.106;8.580;2023-07-16T00:30:43;24.30;96.00
11246;DHT22;59870;50.106;8.580;2023-07-16T00:33:11;24.40;96.10
11246;DHT22;59870;50.106;8.580;2023-07-16T00:35:38;24.20;96.00
11246;DHT22;59870;50.106;8.580;2023-07-16T00:38:06;24.40;96.10
11246;DHT22;59870;50.106;8.580;2023-07-16T00:40:33;24.20;95.50
11246;DHT22;59870;50.106;8.580;2023-07-16T00:43:01;24.50;95.90
11246;DHT22;59870;50.106;8.580;2023-07-16T00:45:28;24.20;95.70
11246;DHT22;59870;50.106;8.580;2023-07-16T00:47:58;24.10;95.70
11246;DHT22;59870;50.106;8.580;2023-07-16T00:50:26;24.10;95.70
11246;DHT22;59870;50.106;8.580;2023-07-16T00:52:54;24.30;96.00
11246;DHT22;59870;50.106;8.580;2023-07-16T00:55:22;24.30;95.80
11246;DHT22;59870;50.106;8.580;2023-07-16T00:57:51;24.30;95.90
11246;DHT22;59870;50.106;8.580;2023-07-16T01:00:18;24.00;95.80
11246;DHT22;59870;50.106;8.580;2023-07-16T01:02:50;24.00;95.70
11246;DHT22;59870;50.106;8.580;2023-07-16T01:05:18;24.10;95.60
11246;DHT22;59870;50.106;8.580;2023-07-16T01:07:57;24.00;95.70
11246;DHT22;59870;50.106;8.580;2023-07-16T01:10:26;24.00;95.80
11246;DHT22;59870;50.106;8.580;2023-07-16T01:12:56;24.00;96.00
11246;DHT22;59870;50.106;8.580;2023-07-16T01:15:24;24.00;96.10
11246;DHT22;59870;50.106;8.580;2023-07-16T01:17:52;24.00;95.90
11246;DHT22;59870;50.106;8.580;2023-07-16T01:20:20;24.30;96.20
11246;DHT22;59870;50.106;8.580;2023-07-16T01:31:11;23.90;96.00
11246;DHT22;59870;50.106;8.580;2023-07-16T01:33:41;23.90;96.20
11246;DHT22;59870;50.106;8.580;2023-07-16T01:36:13;23.90;96.20
11246;DHT22;59870;50.106;8.580;2023-07-16T01:38:41;23.90;96.10
11246;DHT22;59870;50.106;8.580;2023-07-16T01:41:09;23.90;96.30
11246;DHT22;59870;50.106;8.580;2023-07-16T01:43:36;24.20;96.50
11246;DHT22;59870;50.106;8.580;2023-07-16T01:46:04;23.90;96.20
11246;DHT22;59870;50.106;8.580;2023-07-16T01:48:34;23.90;96.20
11246;DHT22;59870;50.106;8.580;2023-07-16T01:51:03;23.90;96.10
11246;DHT22;59870;50.106;8.580;2023-07-16T01:53:32;24.10;96.40
11246;DHT22;59870;50.106;8.580;2023-07-16T01:56:03;23.80;96.00
11246;DHT22;59870;50.106;8.580;2023-07-16T01:58:31;23.80;96.00
11246;DHT22;59870;50.106;8.580;2023-07-16T02:00:58;24.10;96.20
11246;DHT22;59870;50.106;8.580;2023-07-16T02:03:27;23.70;96.00
11246;DHT22;59870;50.106;8.580;2023-07-16T02:05:55;23.70;95.90
11246;DHT22;59870;50.106;8.580;2023-07-16T02:08:22;23.90;96.20
11246;DHT22;59870;50.106;8.580;2023-07-16T02:10:50;23.60;96.00
11246;DHT22;59870;50.106;8.580;2023-07-16T02:13:17;23.60;96.10
11246;DHT22;59870;50.106;8.580;2023-07-16T02:15:45;23.40;96.10
11246;DHT22;59870;50.106;8.580;2023-07-16T02:18:14;23.40;96.40
11246;DHT22;59870;50.106;8.580;2023-07-16T02:20:43;23.40;96.10
11246;DHT22;59870;50.106;8.580;2023-07-16T02:23:10;23.40;96.30
11246;DHT22;59870;50.106;8.580;2023-07-16T02:25:38;23.40;96.10
11246;DHT22;59870;50.106;8.580;2023-07-16T02:28:05;23.40;96.10
11246;DHT22;59870;50.106;8.580;2023-07-16T02:30:33;23.30;95.90
11246;DHT22;59870;50.106;8.580;2023-07-16T02:33:00;23.30;96.00
11246;DHT22;59870;50.106;8.580;2023-07-16T02:35:29;23.50;95.80
11246;DHT22;59870;50.106;8.580;2023-07-16T02:37:56;23.50;95.70
11246;DHT22;59870;50.106;8.580;2023-07-16T02:40:26;23.20;96.00
11246;DHT22;59870;50.106;8.580;2023-07-16T02:42:53;23.20;95.80
11246;DHT22;59870;50.106;8.580;2023-07-16T02:45:21;23.20;95.40
11246;DHT22;59870;50.106;8.580;2023-07-16T02:47:48;23.20;95.30
11246;DHT22;59870;50.106;8.580;2023-07-16T02:50:16;23.50;95.40
11246;DHT22;59870;50.106;8.580;2023-07-16T02:52:43;23.20;95.10
11246;DHT22;59870;50.106;8.580;2023-07-16T02:55:11;23.10;95.20
11246;DHT22;59870;50.106;8.580;2023-07-16T02:57:39;23.40;95.40
11246;DHT22;59870;50.106;8.580;2023-07-16T03:00:08;23.40;95.40
11246;DHT22;59870;50.106;8.580;2023-07-16T03:02:36;23.00;95.40
11246;DHT22;59870;50.106;8.580;2023-07-16T03:05:04;23.00;95.50
11246;DHT22;59870;50.106;8.580;2023-07-16T03:07:31;23.00;95.50
11246;DHT22;59870;50.106;8.580;2023-07-16T03:10:00;23.00;95.70
11246;DHT22;59870;50.106;8.580;2023-07-16T03:12:27;22.90;95.50
11246;DHT22;59870;50.106;8.580;2023-07-16T03:14:55;22.90;95.50
11246;DHT22;59870;50.106;8.580;2023-07-16T03:17:22;23.30;95.70
11246;DHT22;59870;50.106;8.580;2023-07-16T03:19:51;23.30;95.70
11246;DHT22;59870;50.106;8.580;2023-07-16T03:22:19;23.20;95.60
11246;DHT22;59870;50.106;8.580;2023-07-16T03:24:48;23.20;95.30
11246;DHT22;59870;50.106;8.580;2023-07-16T03:27:16;22.90;95.20
11246;DHT22;59870;50.106;8.580;2023-07-16T03:29:50;22.90;95.20
11246;DHT22;59870;50.106;8.580;2023-07-16T03:32:19;22.90;95.00
11246;DHT22;59870;50.106;8.580;2023-07-16T03:34:46;22.90;95.00
11246;DHT22;59870;50.106;8.580;2023-07-16T03:37:14;22.90;94.90
11246;DHT22;59870;50.106;8.580;2023-07-16T03:39:41;23.20;95.00
11246;DHT22;59870;50.106;8.580;2023-07-16T03:42:09;22.90;94.90
11246;DHT22;59870;50.106;8.580;2023-07-16T03:44:37;22.80;94.70
11246;DHT22;59870;50.106;8.580;2023-07-16T03:47:05;23.10;94.80
11246;DHT22;59870;50.106;8.580;2023-07-16T03:49:33;23.00;94.70
11246;DHT22;59870;50.106;8.580;2023-07-16T03:52:00;22.80;94.60
11246;DHT22;59870;50.106;8.580;2023-07-16T03:54:28;22.80;94.50
11246;DHT22;59870;50.106;8.580;2023-07-16T03:56:56;23.00;94.60
11246;DHT22;59870;50.106;8.580;2023-07-16T03:59:25;22.70;94.60
11246;DHT22;59870;50.106;8.580;2023-07-16T04:01:53;22.80;94.70
11246;DHT22;59870;50.106;8.580;2023-07-16T04:04:21;22.60;94.80
11246;DHT22;59870;50.106;8.580;2023-07-16T04:06:48;22.60;94.80
11246;DHT22;59870;50.106;8.580;2023-07-16T04:09:16;22.60;94.80
11246;DHT22;59870;50.106;8.580;2023-07-16T04:11:44;22.60;94.80
11246;DHT22;59870;50.106;8.580;2023-07-16T04:14:11;22.60;94.70
11246;DHT22;59870;50.106;8.580;2023-07-16T04:16:39;22.50;94.80
11246;DHT22;59870;50.106;8.580;2023-07-16T04:19:10;22.50;94.80
11246;DHT22;59870;50.106;8.580;2023-07-16T04:21:38;22.50;94.80
11246;DHT22;59870;50.106;8.580;2023-07-16T04:24:06;22.40;94.90
11246;DHT22;59870;50.106;8.580;2023-07-16T04:26:33;22.30;95.10
11246;DHT22;59870;50.106;8.580;2023-07-16T04:29:01;22.30;95.20
11246;DHT22;59870;50.106;8.580;2023-07-16T04:31:28;22.50;95.40
11246;DHT22;59870;50.106;8.580;2023-07-16T04:33:56;22.20;95.20
11246;DHT22;59870;50.106;8.580;2023-07-16T04:36:23;22.20;95.60
11246;DHT22;59870;50.106;8.580;2023-07-16T04:38:51;22.20;95.50
11246;DHT22;59870;50.106;8.580;2023-07-16T04:41:20;22.40;95.80
11246;DHT22;59870;50.106;8.580;2023-07-16T04:43:47;22.20;95.50
11246;DHT22;59870;50.106;8.580;2023-07-16T04:46:15;22.50;95.40
11246;DHT22;59870;50.106;8.580;2023-07-16T04:48:44;22.20;95.20
11246;DHT22;59870;50.106;8.580;2023-07-16T04:51:11;22.30;95.10
11246;DHT22;59870;50.106;8.580;2023-07-16T04:53:39;22.30;94.80
11246;DHT22;59870;50.106;8.580;2023-07-16T04:56:12;22.60;95.10
11246;DHT22;59870;50.106;8.580;2023-07-16T04:58:40;22.50;94.90
11246;DHT22;59870;50.106;8.580;2023-07-16T05:01:09;22.40;94.90
11246;DHT22;59870;50.106;8.580;2023-07-16T05:03:36;22.60;94.60
11246;DHT22;59870;50.106;8.580;2023-07-16T05:06:05;22.50;94.60
11246;DHT22;59870;50.106;8.580;2023-07-16T05:08:32;22.60;94.80
11246;DHT22;59870;50.106;8.580;2023-07-16T05:11:01;22.20;94.40
11246;DHT22;59870;50.106;8.580;2023-07-16T05:13:29;22.90;94.50
11246;DHT22;59870;50.106;8.580;2023-07-16T05:15:56;22.80;94.50
11246;DHT22;59870;50.106;8.580;2023-07-16T05:18:24;23.10;94.60
11246;DHT22;59870;50.106;8.580;2023-07-16T05:20:52;23.00;94.20
11246;DHT22;59870;50.106;8.580;2023-07-16T05:23:20;23.20;94.20
11246;DHT22;59870;50.106;8.580;2023-07-16T05:25:48;23.40;94.40
11246;DHT22;59870;50.106;8.580;2023-07-16T05:28:17;23.20;93.60
11246;DHT22;59870;50.106;8.580;2023-07-16T05:30:45;23.50;93.00
11246;DHT22;59870;50.106;8.580;2023-07-16T05:33:13;23.60;92.80
11246;DHT22;59870;50.106;8.580;2023-07-16T05:35:40;23.70;92.90
11246;DHT22;59870;50.106;8.580;2023-07-16T05:38:08;23.90;92.50
11246;DHT22;59870;50.106;8.580;2023-07-16T05:40:35;23.80;92.30
11246;DHT22;59870;50.106;8.580;2023-07-16T05:43:03;23.80;92.30
11246;DHT22;59870;50.106;8.580;2023-07-16T05:45:30;23.90;92.10
11246;DHT22;59870;50.106;8.580;2023-07-16T05:47:58;24.00;91.50
11246;DHT22;59870;50.106;8.580;2023-07-16T05:50:27;24.10;90.90
11246;DHT22;59870;50.106;8.580;2023-07-16T05:52:54;24.40;91.50
11246;DHT22;59870;50.106;8.580;2023-07-16T05:55:28;24.40;90.80
11246;DHT22;59870;50.106;8.580;2023-07-16T05:57:56;24.90;91.00
11246;DHT22;59870;50.106;8.580;2023-07-16T06:00:24;25.10;90.40
11246;DHT22;59870;50.106;8.580;2023-07-16T06:02:54;25.60;89.40
11246;DHT22;59870;50.106;8.580;2023-07-16T06:05:22;26.20;88.00
11246;DHT22;59870;50.106;8.580;2023-07-16T06:07:54;26.60;84.60
11246;DHT22;59870;50.106;8.580;2023-07-16T06:10:30;26.80;83.10
11246;DHT22;59870;50.106;8.580;2023-07-16T06:13:18;27.30;82.80
11246;DHT22;59870;50.106;8.580;2023-07-16T06:15:46;27.80;78.10
11246;DHT22;59870;50.106;8.580;2023-07-16T06:18:19;27.90;79.10
11246;DHT22;59870;50.106;8.580;2023-07-16T06:20:50;28.20;77.20
11246;DHT22;59870;50.106;8.580;2023-07-16T06:23:19;28.50;76.30
11246;DHT22;59870;50.106;8.580;2023-07-16T06:25:46;29.20;75.70
11246;DHT22;59870;50.106;8.580;2023-07-16T06:28:15;29.20;74.30
11246;DHT22;59870;50.106;8.580;2023-07-16T06:30:43;29.40;72.40
11246;DHT22;59870;50.106;8.580;2023-07-16T06:33:10;29.40;72.60
11246;DHT22;59870;50.106;8.580;2023-07-16T06:35:38;28.90;72.10
11246;DHT22;59870;50.106;8.580;2023-07-16T06:38:05;28.80;69.20
11246;DHT22;59870;50.106;8.580;2023-07-16T06:40:33;28.80;69.40
11246;DHT22;59870;50.106;8.580;2023-07-16T06:43:00;29.00;68.80
11246;DHT22;59870;50.106;8.580;2023-07-16T06:45:28;28.70;67.80
11246;DHT22;59870;50.106;8.580;2023-07-16T06:47:55;28.70;68.30
11246;DHT22;59870;50.106;8.580;2023-07-16T06:50:22;28.70;68.50
11246;DHT22;59870;50.106;8.580;2023-07-16T06:52:50;28.80;65.70
11246;DHT22;59870;50.106;8.580;2023-07-16T06:55:17;29.10;65.50
11246;DHT22;59870;50.106;8.580;2023-07-16T06:57:45;29.00;65.30
11246;DHT22;59870;50.106;8.580;2023-07-16T07:00:12;29.10;64.40
11246;DHT22;59870;50.106;8.580;2023-07-16T07:02:39;29.20;64.40
11246;DHT22;59870;50.106;8.580;2023-07-16T07:05:07;29.30;64.40
11246;DHT22;59870;50.106;8.580;2023-07-16T07:07:35;29.40;61.60
11246;DHT22;59870;50.106;8.580;2023-07-16T07:10:02;29.90;62.80
11246;DHT22;59870;50.106;8.580;2023-07-16T07:12:30;29.80;61.70
11246;DHT22;59870;50.106;8.580;2023-07-16T07:15:02;30.00;61.40
11246;DHT22;59870;50.106;8.580;2023-07-16T07:17:29;30.20;59.30
11246;DHT22;59870;50.106;8.580;2023-07-16T07:19:57;30.50;58.20
11246;DHT22;59870;50.106;8.580;2023-07-16T07:22:24;30.70;57.50
11246;DHT22;59870;50.106;8.580;2023-07-16T07:24:52;31.20;57.60
11246;DHT22;59870;50.106;8.580;2023-07-16T07:27:19;31.00;56.20
11246;DHT22;59870;50.106;8.580;2023-07-16T07:29:47;31.20;55.40
11246;DHT22;59870;50.106;8.580;2023-07-16T07:32:19;31.70;55.40
11246;DHT22;59870;50.106;8.580;2023-07-16T07:34:48;31.60;54.10
11246;DHT22;59870;50.106;8.580;2023-07-16T07:37:15;31.80;54.90
11246;DHT22;59870;50.106;8.580;2023-07-16T07:39:43;31.90;53.00
11246;DHT22;59870;50.106;8.580;2023-07-16T07:42:15;32.10;51.60
11246;DHT22;59870;50.106;8.580;2023-07-16T07:44:43;32.60;51.70
11246;DHT22;59870;50.106;8.580;2023-07-16T07:47:10;32.30;51.40
11246;DHT22;59870;50.106;8.580;2023-07-16T07:49:38;32.60;51.20
11246;DHT22;59870;50.106;8.580;2023-07-16T07:52:07;33.10;50.90
11246;DHT22;59870;50.106;8.580;2023-07-16T07:54:35;32.80;50.00
11246;DHT22;59870;50.106;8.580;2023-07-16T07:57:06;33.10;49.70
11246;DHT22;59870;50.106;8.580;2023-07-16T07:59:34;33.20;49.80
11246;DHT22;59870;50.106;8.580;2023-07-16T08:02:01;33.90;48.50
11246;DHT22;59870;50.106;8.580;2023-07-16T08:04:29;33.60;46.90
11246;DHT22;59870;50.106;8.580;2023-07-16T08:07:10;34.20;46.40
11246;DHT22;59870;50.106;8.580;2023-07-16T08:09:37;33.90;45.70
11246;DHT22;59870;50.106;8.580;2023-07-16T08:12:05;34.00;44.70
11246;DHT22;59870;50.106;8.580;2023-07-16T08:14:33;34.10;44.60
11246;DHT22;59870;50.106;8.580;2023-07-16T08:17:00;34.30;44.30
11246;DHT22;59870;50.106;8.580;2023-07-16T08:19:28;34.40;43.80
11246;DHT22;59870;50.106;8.580;2023-07-16T08:21:55;34.50;43.90
11246;DHT22;59870;50.106;8.580;2023-07-16T08:24:24;34.90;42.90
11246;DHT22;59870;50.106;8.580;2023-07-16T08:26:52;34.80;42.00
11246;DHT22;59870;50.106;8.580;2023-07-16T08:29:19;35.30;41.40
11246;DHT22;59870;50.106;8.580;2023-07-16T08:31:47;34.90;41.00
11246;DHT22;59870;50.106;8.580;2023-07-16T08:34:14;35.10;41.00
11246;DHT22;59870;50.106;8.580;2023-07-16T08:36:41;35.10;41.00
11246;DHT22;59870;50.106;8.580;2023-07-16T08:39:11;35.40;40.70
11246;DHT22;59870;50.106;8.580;2023-07-16T08:41:39;35.90;40.80
11246;DHT22;59870;50.106;8.580;2023-07-16T08:44:06;35.50;39.00
11246;DHT22;59870;50.106;8.580;2023-07-16T08:46:34;35.60;39.00
11246;DHT22;59870;50.106;8.580;2023-07-16T08:49:03;35.70;37.20
11246;DHT22;59870;50.106;8.580;2023-07-16T08:51:32;35.70;38.30
11246;DHT22;59870;50.106;8.580;2023-07-16T08:54:01;35.60;37.90
11246;DHT22;59870;50.106;8.580;2023-07-16T08:56:29;35.60;37.40
11246;DHT22;59870;50.106;8.580;2023-07-16T08:58:57;35.70;37.80
11246;DHT22;59870;50.106;8.580;2023-07-16T09:01:25;35.70;37.90
11246;DHT22;59870;50.106;8.580;2023-07-16T09:03:54;36.00;37.60
11246;DHT22;59870;50.106;8.580;2023-07-16T09:06:21;35.90;36.70
11246;DHT22;59870;50.106;8.580;2023-07-16T09:08:49;36.20;37.20
11246;DHT22;59870;50.106;8.580;2023-07-16T09:11:17;36.20;36.00
11246;DHT22;59870;50.106;8.580;2023-07-16T09:13:49;36.70;36.90
11246;DHT22;59870;50.106;8.580;2023-07-16T09:16:20;36.40;36.00
11246;DHT22;59870;50.106;8.580;2023-07-16T09:18:48;36.60;35.70
11246;DHT22;59870;50.106;8.580;2023-07-16T09:21:15;36.70;35.40
11246;DHT22;59870;50.106;8.580;2023-07-16T09:23:44;36.80;36.20
11246;DHT22;59870;50.106;8.580;2023-07-16T09:26:12;37.00;35.80
11246;DHT22;59870;50.106;8.580;2023-07-16T09:28:39;37.20;34.70
11246;DHT22;59870;50.106;8.580;2023-07-16T09:31:07;37.40;35.40
11246;DHT22;59870;50.106;8.580;2023-07-16T09:33:35;37.60;34.20
11246;DHT22;59870;50.106;8.580;2023-07-16T09:36:03;38.10;33.60
11246;DHT22;59870;50.106;8.580;2023-07-16T09:38:31;37.60;34.00
11246;DHT22;59870;50.106;8.580;2023-07-16T09:41:02;37.70;32.20
11246;DHT22;59870;50.106;8.580;2023-07-16T09:43:30;37.70;32.50
11246;DHT22;59870;50.106;8.580;2023-07-16T09:45:57;37.70;32.40
11246;DHT22;59870;50.106;8.580;2023-07-16T09:48:25;37.70;33.40
11246;DHT22;59870;50.106;8.580;2023-07-16T09:50:53;37.70;32.30
11246;DHT22;59870;50.106;8.580;2023-07-16T09:53:23;37.80;32.90
11246;DHT22;59870;50.106;8.580;2023-07-16T09:55:55;37.10;32.50
11246;DHT22;59870;50.106;8.580;2023-07-16T09:58:23;36.70;31.50
11246;DHT22;59870;50.106;8.580;2023-07-16T10:00:52;36.40;32.50
11246;DHT22;59870;50.106;8.580;2023-07-16T10:03:20;36.00;33.90
11246;DHT22;59870;50.106;8.580;2023-07-16T10:05:47;35.70;34.40
11246;DHT22;59870;50.106;8.580;2023-07-16T10:08:18;35.50;34.50
11246;DHT22;59870;50.106;8.580;2023-07-16T10:10:48;35.20;35.50
11246;DHT22;59870;50.106;8.580;2023-07-16T10:13:16;34.80;35.00
11246;DHT22;59870;50.106;8.580;2023-07-16T10:18:32;34.80;36.00
11246;DHT22;59870;50.106;8.580;2023-07-16T10:21:07;34.10;36.80
11246;DHT22;59870;50.106;8.580;2023-07-16T10:23:43;34.20;37.50
11246;DHT22;59870;50.106;8.580;2023-07-16T10:26:13;33.80;37.00
11246;DHT22;59870;50.106;8.580;2023-07-16T10:28:46;33.60;36.90
11246;DHT22;59870;50.106;8.580;2023-07-16T10:31:24;33.50;37.60
11246;DHT22;59870;50.106;8.580;2023-07-16T10:34:02;33.30;37.50
11246;DHT22;59870;50.106;8.580;2023-07-16T10:36:37;33.10;37.50
11246;DHT22;59870;50.106;8.580;2023-07-16T10:39:06;33.00;36.80
11246;DHT22;59870;50.106;8.580;2023-07-16T10:41:33;32.80;37.60
11246;DHT22;59870;50.106;8.580;2023-07-16T10:44:01;33.20;37.80
11246;DHT22;59870;50.106;8.580;2023-07-16T10:46:31;32.60;37.90
11246;DHT22;59870;50.106;8.580;2023-07-16T10:49:02;32.50;37.50
11246;DHT22;59870;50.106;8.580;2023-07-16T10:51:30;32.30;38.00
11246;DHT22;59870;50.106;8.580;2023-07-16T10:53:57;32.20;39.20
11246;DHT22;59870;50.106;8.580;2023-07-16T10:56:25;32.70;38.10
11246;DHT22;59870;50.106;8.580;2023-07-16T10:58:53;32.00;37.70
11246;DHT22;59870;50.106;8.580;2023-07-16T11:01:21;32.10;38.00
11246;DHT22;59870;50.106;8.580;2023-07-16T11:03:49;31.90;38.50
11246;DHT22;59870;50.106;8.580;2023-07-16T11:06:18;32.00;39.90
11246;DHT22;59870;50.106;8.580;2023-07-16T11:08:47;31.70;38.00
11246;DHT22;59870;50.106;8.580;2023-07-16T11:11:14;31.60;39.00
11246;DHT22;59870;50.106;8.580;2023-07-16T11:13:43;31.50;40.10
11246;DHT22;59870;50.106;8.580;2023-07-16T11:16:15;31.50;38.60
11246;DHT22;59870;50.106;8.580;2023-07-16T11:18:44;31.90;39.00
11246;DHT22;59870;50.106;8.580;2023-07-16T11:21:11;31.70;38.80
11246;DHT22;59870;50.106;8.580;2023-07-16T11:23:39;31.40;39.20
11246;DHT22;59870;50.106;8.580;2023-07-16T11:26:06;31.40;39.30
11246;DHT22;59870;50.106;8.580;2023-07-16T11:28:39;31.40;39.50
11246;DHT22;59870;50.106;8.580;2023-07-16T11:31:15;31.70;39.30
11246;DHT22;59870;50.106;8.580;2023-07-16T11:33:44;31.40;38.20
11246;DHT22;59870;50.106;8.580;2023-07-16T11:36:12;31.70;38.20
11246;DHT22;59870;50.106;8.580;2023-07-16T11:38:40;31.20;38.00
11246;DHT22;59870;50.106;8.580;2023-07-16T11:41:09;31.20;39.10
11246;DHT22;59870;50.106;8.580;2023-07-16T11:43:37;31.10;38.60
11246;DHT22;59870;50.106;8.580;2023-07-16T11:46:17;31.10;39.10
11246;DHT22;59870;50.106;8.580;2023-07-16T11:48:45;31.10;39.70
11246;DHT22;59870;50.106;8.580;2023-07-16T11:51:13;31.10;39.80
11246;DHT22;59870;50.106;8.580;2023-07-16T11:53:40;31.10;37.20
11246;DHT22;59870;50.106;8.580;2023-07-16T11:56:08;31.00;38.00
11246;DHT22;59870;50.106;8.580;2023-07-16T11:58:36;31.20;39.40
11246;DHT22;59870;50.106;8.580;2023-07-16T12:01:03;31.00;38.90
11246;DHT22;59870;50.106;8.580;2023-07-16T12:03:31;31.10;38.50
11246;DHT22;59870;50.106;8.580;2023-07-16T12:05:58;30.90;40.10
11246;DHT22;59870;50.106;8.580;2023-07-16T12:08:26;31.00;38.10
11246;DHT22;59870;50.106;8.580;2023-07-16T12:10:54;31.50;37.90
11246;DHT22;59870;50.106;8.580;2023-07-16T12:13:21;31.10;39.20
11246;DHT22;59870;50.106;8.580;2023-07-16T12:15:48;30.90;38.30
11246;DHT22;59870;50.106;8.580;2023-07-16T12:18:16;30.90;38.20
11246;DHT22;59870;50.106;8.580;2023-07-16T12:20:43;30.90;39.00
11246;DHT22;59870;50.106;8.580;2023-07-16T12:23:10;30.80;39.00
11246;DHT22;59870;50.106;8.580;2023-07-16T12:25:38;30.80;38.70
11246;DHT22;59870;50.106;8.580;2023-07-16T12:28:05;30.70;38.70
11246;DHT22;59870;50.106;8.580;2023-07-16T12:30:33;31.20;39.70
11246;DHT22;59870;50.106;8.580;2023-07-16T12:33:00;30.70;38.10
11246;DHT22;59870;50.106;8.580;2023-07-16T12:35:28;30.70;38.50
11246;DHT22;59870;50.106;8.580;2023-07-16T12:37:55;30.60;38.90
11246;DHT22;59870;50.106;8.580;2023-07-16T12:40:25;30.80;37.80
11246;DHT22;59870;50.106;8.580;2023-07-16T12:42:53;30.60;37.00
11246;DHT22;59870;50.106;8.580;2023-07-16T12:45:21;30.60;38.70
11246;DHT22;59870;50.106;8.580;2023-07-16T12:47:48;30.60;38.10
11246;DHT22;59870;50.106;8.580;2023-07-16T12:50:16;30.60;37.40
11246;DHT22;59870;50.106;8.580;2023-07-16T12:52:43;31.10;38.60
11246;DHT22;59870;50.106;8.580;2023-07-16T12:55:11;30.50;37.80
11246;DHT22;59870;50.106;8.580;2023-07-16T12:57:38;30.50;37.80
11246;DHT22;59870;50.106;8.580;2023-07-16T13:00:06;30.50;38.10
11246;DHT22;59870;50.106;8.580;2023-07-16T13:02:38;30.50;38.50
11246;DHT22;59870;50.106;8.580;2023-07-16T13:05:05;30.50;37.70
11246;DHT22;59870;50.106;8.580;2023-07-16T13:07:33;30.50;38.20
11246;DHT22;59870;50.106;8.580;2023-07-16T13:10:01;30.50;38.20
11246;DHT22;59870;50.106;8.580;2023-07-16T13:12:48;30.40;38.20
11246;DHT22;59870;50.106;8.580;2023-07-16T13:15:16;30.90;39.00
11246;DHT22;59870;50.106;8.580;2023-07-16T13:17:43;30.40;38.80
11246;DHT22;59870;50.106;8.580;2023-07-16T13:20:11;30.40;39.40
11246;DHT22;59870;50.106;8.580;2023-07-16T13:22:39;30.50;39.50
11246;DHT22;59870;50.106;8.580;2023-07-16T13:25:06;30.60;39.10
11246;DHT22;59870;50.106;8.580;2023-07-16T13:27:34;30.50;39.10
11246;DHT22;59870;50.106;8.580;2023-07-16T13:30:02;30.50;38.40
11246;DHT22;59870;50.106;8.580;2023-07-16T13:32:30;30.50;38.60
11246;DHT22;59870;50.106;8.580;2023-07-16T13:34:58;31.00;38.70
11246;DHT22;59870;50.106;8.580;2023-07-16T13:37:25;30.50;39.10
11246;DHT22;59870;50.106;8.580;2023-07-16T13:39:54;30.80;39.30
11246;DHT22;59870;50.106;8.580;2023-07-16T13:42:21;31.00;39.70
11246;DHT22;59870;50.106;8.580;2023-07-16T13:44:50;30.50;38.50
11246;DHT22;59870;50.106;8.580;2023-07-16T13:47:17;30.50;38.20
11246;DHT22;59870;50.106;8.580;2023-07-16T13:49:45;30.50;38.10
11246;DHT22;59870;50.106;8.580;2023-07-16T13:52:12;30.50;38.90
11246;DHT22;59870;50.106;8.580;2023-07-16T13:54:40;30.50;39.60
11246;DHT22;59870;50.106;8.580;2023-07-16T13:57:09;30.90;39.00
11246;DHT22;59870;50.106;8.580;2023-07-16T13:59:36;30.50;38.20
11246;DHT22;59870;50.106;8.580;2023-07-16T14:02:04;30.50;38.70
11246;DHT22;59870;50.106;8.580;2023-07-16T14:04:32;30.50;38.50
11246;DHT22;59870;50.106;8.580;2023-07-16T14:07:00;30.50;38.10
11246;DHT22;59870;50.106;8.580;2023-07-16T14:09:28;30.60;38.50
11246;DHT22;59870;50.106;8.580;2023-07-16T14:11:56;31.00;38.20
11246;DHT22;59870;50.106;8.580;2023-07-16T14:14:23;30.50;38.80
11246;DHT22;59870;50.106;8.580;2023-07-16T14:16:51;30.50;38.30
11246;DHT22;59870;50.106;8.580;2023-07-16T14:19:19;30.60;39.30
11246;DHT22;59870;50.106;8.580;2023-07-16T14:21:46;30.40;37.70
11246;DHT22;59870;50.106;8.580;2023-07-16T14:24:14;30.90;38.50
11246;DHT22;59870;50.106;8.580;2023-07-16T14:26:41;30.40;38.70
11246;DHT22;59870;50.106;8.580;2023-07-16T14:29:09;30.60;38.10
11246;DHT22;59870;50.106;8.580;2023-07-16T14:31:38;30.40;38.10
11246;DHT22;59870;50.106;8.580;2023-07-16T14:34:06;30.90;38.10
11246;DHT22;59870;50.106;8.580;2023-07-16T14:36:33;30.40;38.10
11246;DHT22;59870;50.106;8.580;2023-07-16T14:39:01;30.30;38.30
11246;DHT22;59870;50.106;8.580;2023-07-16T14:41:29;30.30;38.40
11246;DHT22;59870;50.106;8.580;2023-07-16T14:43:56;30.30;38.50
11246;DHT22;59870;50.106;8.580;2023-07-16T14:46:24;30.70;38.30
11246;DHT22;59870;50.106;8.580;2023-07-16T14:48:52;30.50;38.70
11246;DHT22;59870;50.106;8.580;2023-07-16T14:51:23;30.20;38.00
11246;DHT22;59870;50.106;8.580;2023-07-16T14:53:51;30.60;38.80
11246;DHT22;59870;50.106;8.580;2023-07-16T14:56:20;30.10;38.80
11246;DHT22;59870;50.106;8.580;2023-07-16T14:58:47;30.10;38.10
11246;DHT22;59870;50.106;8.580;2023-07-16T15:01:15;30.50;37.80
11246;DHT22;59870;50.106;8.580;2023-07-16T15:03:43;30.10;37.60
11246;DHT22;59870;50.106;8.580;2023-07-16T15:06:11;30.50;37.80
11246;DHT22;59870;50.106;8.580;2023-07-16T15:08:38;30.00;38.70
11246;DHT22;59870;50.106;8.580;2023-07-16T15:11:06;30.00;39.30
11246;DHT22;59870;50.106;8.580;2023-07-16T15:13:33;30.00;39.90
11246;DHT22;59870;50.106;8.580;2023-07-16T15:16:00;29.90;38.60
11246;DHT22;59870;50.106;8.580;2023-07-16T15:18:28;30.00;38.80
11246;DHT22;59870;50.106;8.580;2023-07-16T15:20:57;30.00;39.40
11246;DHT22;59870;50.106;8.580;2023-07-16T15:23:26;29.90;39.70
11246;DHT22;59870;50.106;8.580;2023-07-16T15:25:54;29.90;39.00
11246;DHT22;59870;50.106;8.580;2023-07-16T15:28:22;29.90;38.80
11246;DHT22;59870;50.106;8.580;2023-07-16T15:30:50;29.90;38.90
11246;DHT22;59870;50.106;8.580;2023-07-16T15:33:18;30.20;39.10
11246;DHT22;59870;50.106;8.580;2023-07-16T15:35:46;30.00;39.50
11246;DHT22;59870;50.106;8.580;2023-07-16T15:38:13;30.00;39.00
11246;DHT22;59870;50.106;8.580;2023-07-16T15:40:41;30.40;39.70
11246;DHT22;59870;50.106;8.580;2023-07-16T15:43:08;30.30;38.90
11246;DHT22;59870;50.106;8.580;2023-07-16T15:45:35;30.00;38.70
11246;DHT22;59870;50.106;8.580;2023-07-16T15:48:03;30.00;38.60